createdAt,value
2022-09-18T00:01:01.103Z,60.71
2022-09-18T00:03:30.871Z,60.97
2022-09-18T00:05:57.657Z,59.60
2022-09-18T00:08:24.388Z,59.86
2022-09-18T00:10:51.132Z,59.46
2022-09-18T00:13:17.891Z,59.17
2022-09-18T00:15:55.222Z,58.72
2022-09-18T00:18:22.118Z,58.32
2022-09-18T00:20:48.834Z,57.91
2022-09-18T00:23:15.726Z,58.62
2022-09-18T00:25:42.430Z,59.09
2022-09-18T00:28:09.168Z,58.98
2022-09-18T00:30:35.929Z,58.57
2022-09-18T00:33:02.688Z,58.20
2022-09-18T00:35:29.391Z,57.76
2022-09-18T00:37:56.138Z,59.16
2022-09-18T00:40:22.895Z,58.17
2022-09-18T00:42:49.598Z,57.85
2022-09-18T00:45:16.507Z,58.05
2022-09-18T00:47:49.160Z,58.93
2022-09-18T00:50:18.737Z,59.48
2022-09-18T00:52:59.943Z,59.64
2022-09-18T00:55:33.706Z,60.61
2022-09-18T00:58:03.064Z,60.79
2022-09-18T01:00:31.613Z,60.43
2022-09-18T01:03:01.472Z,61.37
2022-09-18T01:05:31.218Z,60.74
2022-09-18T01:08:00.879Z,60.15
2022-09-18T01:10:42.761Z,59.67
2022-09-18T01:13:38.516Z,60.09
2022-09-18T01:16:34.757Z,60.50
2022-09-18T01:19:38.997Z,63.12
2022-09-18T01:22:31.200Z,61.46
2022-09-18T01:25:32.138Z,60.84
2022-09-18T01:28:04.572Z,63.09
2022-09-18T01:30:32.890Z,62.22
2022-09-18T01:33:07.814Z,61.91
2022-09-18T01:35:42.577Z,63.06
2022-09-18T01:38:34.905Z,63.15
2022-09-18T01:41:14.916Z,62.56
2022-09-18T01:43:44.300Z,62.49
2022-09-18T01:46:15.488Z,62.50
2022-09-18T01:48:50.743Z,61.78
2022-09-18T01:51:24.341Z,61.19
2022-09-18T01:54:01.889Z,62.17
2022-09-18T01:56:34.212Z,61.61
2022-09-18T01:59:05.230Z,63.77
2022-09-18T02:01:36.311Z,64.70
2022-09-18T02:04:08.723Z,65.21
2022-09-18T02:06:59.751Z,64.72
2022-09-18T02:09:27.175Z,64.57
2022-09-18T02:11:58.894Z,64.54
2022-09-18T02:14:47.874Z,64.28
2022-09-18T02:17:26.620Z,65.67
2022-09-18T02:20:11.043Z,65.84
2022-09-18T02:22:38.789Z,66.03
2022-09-18T02:25:09.037Z,66.01
2022-09-18T02:27:38.670Z,65.22
2022-09-18T02:30:07.548Z,64.19
2022-09-18T02:32:37.989Z,65.82
2022-09-18T02:35:07.379Z,65.55
2022-09-18T02:37:37.038Z,65.12
2022-09-18T02:40:07.989Z,64.40
2022-09-18T02:42:53.688Z,65.12
2022-09-18T02:45:48.646Z,64.03
2022-09-18T02:48:42.480Z,63.55
2022-09-18T02:51:54.518Z,63.33
2022-09-18T02:54:41.966Z,66.59
2022-09-18T02:57:16.685Z,64.35
2022-09-18T02:59:51.265Z,64.65
2022-09-18T03:02:20.463Z,64.23
2022-09-18T03:04:47.318Z,63.79
2022-09-18T03:07:16.010Z,63.26
2022-09-18T03:09:43.543Z,62.85
2022-09-18T03:12:10.912Z,63.95
2022-09-18T03:14:37.639Z,63.22
2022-09-18T03:17:04.542Z,62.72
2022-09-18T03:19:31.336Z,63.29
2022-09-18T03:21:58.055Z,62.75
2022-09-18T03:24:27.863Z,62.62
2022-09-18T03:26:54.771Z,62.71
2022-09-18T03:29:21.495Z,62.85
2022-09-18T03:31:48.329Z,62.46
2022-09-18T03:34:15.089Z,61.87
2022-09-18T03:36:41.805Z,62.17
2022-09-18T03:39:08.506Z,64.90
2022-09-18T03:41:35.276Z,64.12
2022-09-18T03:44:02.205Z,64.84
2022-09-18T03:46:29.007Z,65.32
2022-09-18T03:48:55.857Z,65.20
2022-09-18T03:51:22.846Z,66.62
2022-09-18T03:53:51.408Z,70.04
2022-09-18T03:56:18.351Z,67.49
2022-09-18T03:58:45.603Z,66.12
2022-09-18T04:01:13.823Z,66.48
2022-09-18T04:03:41.034Z,66.41
2022-09-18T04:06:08.076Z,65.97
2022-09-18T04:08:36.021Z,65.43
2022-09-18T04:11:04.738Z,65.26
2022-09-18T04:13:32.674Z,64.71
2022-09-18T04:15:59.861Z,64.69
2022-09-18T04:18:26.609Z,64.32
2022-09-18T04:20:53.350Z,64.09
2022-09-18T04:23:20.870Z,63.85
2022-09-18T04:25:48.711Z,63.56
2022-09-18T04:28:15.462Z,63.73
2022-09-18T04:30:42.645Z,65.42
2022-09-18T04:33:09.473Z,65.08
2022-09-18T04:35:36.507Z,64.73
2022-09-18T04:38:03.320Z,64.54
2022-09-18T04:40:30.290Z,64.43
2022-09-18T04:42:57.393Z,64.17
2022-09-18T04:45:24.216Z,64.50
2022-09-18T04:47:51.019Z,64.29
2022-09-18T04:50:17.884Z,65.98
2022-09-18T04:52:44.622Z,65.24
2022-09-18T04:55:11.583Z,64.29
2022-09-18T04:57:38.411Z,63.36
2022-09-18T05:00:06.914Z,59.97
2022-09-18T05:02:33.860Z,58.69
2022-09-18T05:05:00.574Z,56.50
2022-09-18T05:07:27.842Z,53.20
2022-09-18T05:09:54.701Z,49.36
2022-09-18T05:12:21.455Z,48.07
2022-09-18T05:14:48.197Z,48.43
2022-09-18T05:17:15.447Z,46.35
2022-09-18T05:19:42.200Z,44.90
2022-09-18T05:22:08.999Z,43.56
2022-09-18T05:24:35.752Z,42.74
2022-09-18T05:27:04.018Z,42.51
2022-09-18T05:29:30.849Z,42.61
2022-09-18T05:31:57.575Z,41.37
2022-09-18T05:34:24.310Z,39.95
2022-09-18T05:36:51.031Z,38.79
2022-09-18T05:39:17.993Z,39.13
2022-09-18T05:41:44.851Z,39.75
2022-09-18T05:44:11.510Z,39.39
2022-09-18T05:46:38.324Z,40.19
2022-09-18T05:49:06.782Z,38.22
2022-09-18T05:51:33.626Z,37.64
2022-09-18T05:54:00.442Z,38.35
2022-09-18T05:56:28.219Z,37.77
2022-09-18T05:58:55.028Z,37.64
2022-09-18T06:01:21.762Z,37.51
2022-09-18T06:03:51.651Z,36.58
2022-09-18T06:06:18.596Z,37.08
2022-09-18T06:08:45.359Z,37.42
2022-09-18T06:11:12.117Z,37.40
2022-09-18T06:13:38.880Z,35.52
2022-09-18T06:16:05.732Z,35.72
2022-09-18T06:18:32.488Z,36.53
2022-09-18T06:20:59.524Z,36.52
2022-09-18T06:23:28.058Z,37.15
2022-09-18T06:26:02.246Z,36.15
2022-09-18T06:28:31.006Z,35.25
2022-09-18T06:30:59.220Z,35.00
2022-09-18T06:33:26.292Z,35.44
2022-09-18T06:35:53.187Z,35.01
2022-09-18T06:38:19.945Z,34.54
2022-09-18T06:40:51.700Z,35.26
2022-09-18T06:43:19.146Z,35.59
2022-09-18T06:45:56.744Z,36.32
2022-09-18T06:48:24.726Z,37.38
2022-09-18T06:50:55.534Z,35.60
2022-09-18T06:53:23.229Z,35.45
2022-09-18T06:55:50.854Z,32.42
2022-09-18T06:58:18.883Z,31.31
2022-09-18T07:00:46.843Z,31.48
2022-09-18T07:03:13.807Z,32.59
2022-09-18T07:05:42.876Z,33.43
2022-09-18T07:08:10.507Z,32.22
2022-09-18T07:10:39.065Z,31.33
2022-09-18T07:13:05.999Z,33.81
2022-09-18T07:15:33.818Z,30.09
2022-09-18T07:18:02.930Z,30.19
2022-09-18T07:20:30.388Z,30.46
2022-09-18T07:22:59.612Z,30.50
2022-09-18T07:25:28.149Z,29.20
2022-09-18T07:27:55.070Z,30.76
2022-09-18T07:30:22.197Z,30.62
2022-09-18T07:32:49.165Z,31.27
2022-09-18T07:35:16.187Z,31.10
2022-09-18T07:37:43.007Z,30.56
2022-09-18T07:40:12.395Z,30.77
2022-09-18T07:42:40.018Z,30.35
2022-09-18T07:45:07.527Z,29.72
2022-09-18T07:47:34.757Z,31.82
2022-09-18T07:50:01.690Z,32.17
2022-09-18T07:52:28.675Z,32.97
2022-09-18T07:54:55.448Z,33.13
2022-09-18T07:57:22.351Z,33.00
2022-09-18T07:59:49.077Z,31.36
2022-09-18T08:02:16.028Z,31.18
2022-09-18T08:04:43.057Z,28.79
2022-09-18T08:07:09.946Z,32.48
2022-09-18T08:09:36.830Z,30.80
2022-09-18T08:12:03.840Z,32.15
2022-09-18T08:14:30.891Z,30.65
2022-09-18T08:16:58.067Z,30.05
2022-09-18T08:19:25.136Z,32.11
2022-09-18T08:21:51.876Z,30.06
2022-09-18T08:24:18.668Z,31.73
2022-09-18T08:26:45.939Z,31.39
2022-09-18T08:29:19.494Z,28.93
2022-09-18T08:31:47.430Z,30.42
2022-09-18T08:34:14.595Z,28.39
2022-09-18T08:36:41.422Z,27.63
2022-09-18T08:39:08.156Z,28.86
2022-09-18T08:41:46.724Z,28.55
2022-09-18T08:44:18.356Z,27.96
2022-09-18T08:46:56.820Z,31.38
2022-09-18T08:49:28.601Z,26.82
2022-09-18T08:52:04.745Z,27.16
2022-09-18T08:54:46.974Z,27.17
2022-09-18T08:57:21.757Z,25.47
2022-09-18T09:00:04.647Z,25.81
2022-09-18T09:02:45.599Z,24.49
2022-09-18T09:05:28.491Z,24.98
2022-09-18T09:08:17.234Z,25.02
2022-09-18T09:10:49.854Z,24.87
2022-09-18T09:13:16.657Z,26.12
2022-09-18T09:15:50.935Z,27.95
2022-09-18T09:18:30.232Z,29.32
2022-09-18T09:20:59.630Z,28.09
2022-09-18T09:23:54.219Z,27.20
2022-09-18T09:26:25.091Z,26.57
2022-09-18T09:29:03.570Z,28.85
2022-09-18T09:31:38.406Z,27.02
2022-09-18T09:34:22.251Z,27.02
2022-09-18T09:36:52.462Z,24.77
2022-09-18T09:39:34.603Z,24.37
2022-09-18T09:42:05.686Z,24.29
2022-09-18T09:44:38.540Z,25.74
2022-09-18T09:47:28.780Z,30.22
2022-09-18T09:50:33.300Z,27.65
2022-09-18T09:53:05.055Z,28.23
2022-09-18T09:55:37.443Z,28.35
2022-09-18T09:58:30.419Z,28.17
2022-09-18T10:01:25.451Z,28.24
2022-09-18T10:04:16.404Z,28.85
2022-09-18T10:06:54.647Z,28.82
2022-09-18T10:09:36.651Z,29.00
2022-09-18T10:12:25.311Z,30.05
2022-09-18T10:14:56.242Z,27.87
2022-09-18T10:17:24.350Z,28.73
2022-09-18T10:19:51.218Z,29.99
2022-09-18T10:22:23.371Z,27.39
2022-09-18T10:25:02.441Z,27.60
2022-09-18T10:27:29.266Z,28.90
2022-09-18T10:29:56.100Z,28.54
2022-09-18T10:32:41.725Z,31.95
2022-09-18T10:35:29.900Z,28.00
2022-09-18T10:37:57.883Z,31.60
2022-09-18T10:40:51.348Z,29.90
2022-09-18T10:43:19.108Z,28.83
2022-09-18T10:45:52.540Z,29.35
2022-09-18T10:48:25.197Z,30.63
2022-09-18T10:51:00.699Z,28.87
2022-09-18T10:53:33.056Z,28.49
2022-09-18T10:56:05.812Z,28.87
2022-09-18T10:58:33.955Z,29.73
2022-09-18T11:01:08.079Z,27.75
2022-09-18T11:03:35.251Z,27.75
2022-09-18T11:06:05.147Z,27.02
2022-09-18T11:08:41.467Z,27.61
2022-09-18T11:11:13.744Z,27.53
2022-09-18T11:13:51.368Z,25.51
2022-09-18T11:16:28.047Z,25.75
2022-09-18T11:19:13.071Z,24.74
2022-09-18T11:21:48.823Z,27.15
2022-09-18T11:24:35.895Z,23.89
2022-09-18T11:27:17.324Z,27.21
2022-09-18T11:29:44.406Z,25.63
2022-09-18T11:32:16.547Z,27.52
2022-09-18T11:34:53.048Z,25.30
2022-09-18T11:37:34.295Z,28.30
2022-09-18T11:40:08.832Z,28.45
2022-09-18T11:42:47.097Z,25.43
2022-09-18T11:45:41.013Z,26.72
2022-09-18T11:48:08.054Z,27.09
2022-09-18T11:50:36.601Z,26.03
2022-09-18T11:53:19.642Z,26.74
2022-09-18T11:55:55.519Z,26.72
2022-09-18T11:58:48.133Z,27.23
2022-09-18T12:01:33.675Z,28.09
2022-09-18T12:04:19.224Z,26.36
2022-09-18T12:06:57.720Z,25.99
2022-09-18T12:09:31.245Z,25.25
2022-09-18T12:12:13.246Z,24.58
2022-09-18T12:15:08.053Z,25.88
2022-09-18T12:17:43.709Z,23.02
2022-09-18T12:20:19.428Z,26.07
2022-09-18T12:22:49.258Z,24.98
2022-09-18T12:25:17.547Z,25.73
2022-09-18T12:27:53.144Z,26.41
2022-09-18T12:30:26.403Z,25.53
2022-09-18T12:33:22.828Z,24.66
2022-09-18T12:36:26.379Z,25.66
2022-09-18T12:39:22.077Z,24.58
2022-09-18T12:41:58.050Z,25.97
2022-09-18T12:44:56.513Z,26.20
2022-09-18T12:47:50.002Z,25.33
2022-09-18T12:50:39.794Z,25.17
2022-09-18T12:53:29.575Z,26.19
2022-09-18T12:56:19.555Z,27.19
2022-09-18T12:59:08.363Z,26.54
2022-09-18T13:01:48.590Z,29.67
2022-09-18T13:04:38.397Z,30.55
2022-09-18T13:07:13.152Z,30.51
2022-09-18T13:10:26.293Z,30.70
2022-09-18T13:12:59.772Z,35.21
2022-09-18T13:15:33.212Z,40.21
2022-09-18T13:18:31.759Z,41.52
2022-09-18T13:21:02.403Z,43.22
2022-09-18T13:23:35.416Z,43.90
2022-09-18T13:26:05.907Z,44.69
2022-09-18T13:28:33.561Z,45.39
2022-09-18T13:31:22.409Z,45.96
2022-09-18T13:33:59.625Z,44.45
2022-09-18T13:36:36.508Z,44.60
2022-09-18T13:39:18.531Z,44.23
2022-09-18T13:41:54.547Z,42.77
2022-09-18T13:44:25.294Z,41.11
2022-09-18T13:47:12.433Z,39.50
2022-09-18T13:50:00.410Z,38.08
2022-09-18T13:52:33.343Z,36.13
2022-09-18T13:55:13.312Z,36.77
2022-09-18T13:57:41.538Z,37.54
2022-09-18T14:00:20.809Z,36.77
2022-09-18T14:02:51.446Z,34.91
2022-09-18T14:05:38.691Z,34.00
2022-09-18T14:08:26.133Z,35.66
2022-09-18T14:11:14.986Z,35.82
2022-09-18T14:13:47.813Z,36.76
2022-09-18T14:16:20.503Z,36.03
2022-09-18T14:18:47.319Z,35.55
2022-09-18T14:21:17.179Z,36.13
2022-09-18T14:23:47.078Z,36.30
2022-09-18T14:26:28.840Z,40.77
2022-09-18T14:29:01.336Z,42.57
2022-09-18T14:31:31.092Z,40.18
2022-09-18T14:34:39.466Z,40.44
2022-09-18T14:37:31.783Z,42.21
2022-09-18T14:39:59.423Z,41.04
2022-09-18T14:42:35.320Z,40.64
2022-09-18T14:45:08.941Z,39.17
2022-09-18T14:47:35.783Z,38.66
2022-09-18T14:50:04.316Z,38.23
2022-09-18T14:52:41.792Z,37.84
2022-09-18T14:55:12.207Z,37.03
2022-09-18T14:57:47.178Z,36.41
2022-09-18T15:00:22.479Z,36.85
2022-09-18T15:02:51.094Z,38.54
2022-09-18T15:05:21.239Z,38.01
2022-09-18T15:07:59.891Z,37.03
2022-09-18T15:10:27.630Z,36.90
2022-09-18T15:12:57.252Z,36.82
2022-09-18T15:15:38.882Z,38.26
2022-09-18T15:18:19.671Z,39.29
2022-09-18T15:20:54.735Z,36.82
2022-09-18T15:23:27.734Z,37.16
2022-09-18T15:25:57.368Z,40.50
2022-09-18T15:28:25.639Z,39.36
2022-09-18T15:30:59.386Z,38.66
2022-09-18T15:33:27.530Z,37.87
2022-09-18T15:35:55.964Z,38.68
2022-09-18T15:38:26.977Z,39.24
2022-09-18T15:40:54.890Z,40.07
2022-09-18T15:43:30.582Z,40.00
2022-09-18T15:46:09.281Z,41.45
2022-09-18T15:48:48.318Z,41.74
2022-09-18T15:51:26.810Z,40.29
2022-09-18T15:54:15.024Z,39.79
2022-09-18T15:56:59.249Z,41.39
2022-09-18T15:59:34.132Z,40.37
2022-09-18T16:02:08.343Z,41.59
2022-09-18T16:04:36.282Z,42.71
2022-09-18T16:07:21.617Z,44.00
2022-09-18T16:09:49.988Z,44.12
2022-09-18T16:12:31.690Z,44.18
2022-09-18T16:15:23.306Z,43.47
2022-09-18T16:17:54.571Z,42.87
2022-09-18T16:20:27.003Z,43.83
2022-09-18T16:23:03.532Z,42.47
2022-09-18T16:25:31.894Z,42.20
2022-09-18T16:28:00.504Z,42.55
2022-09-18T16:30:28.434Z,43.24
2022-09-18T16:33:22.757Z,42.74
2022-09-18T16:36:16.587Z,42.83
2022-09-18T16:38:43.340Z,44.25
2022-09-18T16:41:10.316Z,44.21
2022-09-18T16:43:37.176Z,42.88
2022-09-18T16:46:04.103Z,43.04
2022-09-18T16:48:31.132Z,42.25
2022-09-18T16:50:57.887Z,42.25
2022-09-18T16:53:24.735Z,43.57
2022-09-18T16:55:54.928Z,43.05
2022-09-18T16:58:22.791Z,44.86
2022-09-18T17:00:49.766Z,46.56
2022-09-18T17:03:18.225Z,45.34
2022-09-18T17:05:45.480Z,44.94
2022-09-18T17:08:12.363Z,45.79
2022-09-18T17:10:43.153Z,45.32
2022-09-18T17:13:11.885Z,45.85
2022-09-18T17:15:38.844Z,45.15
2022-09-18T17:18:05.639Z,45.53
2022-09-18T17:20:33.587Z,45.61
2022-09-18T17:23:01.190Z,45.62
2022-09-18T17:25:28.055Z,45.43
2022-09-18T17:27:54.868Z,45.29
2022-09-18T17:30:21.831Z,45.07
2022-09-18T17:32:48.971Z,45.02
2022-09-18T17:35:17.004Z,46.67
2022-09-18T17:37:46.328Z,49.23
2022-09-18T17:40:13.415Z,49.50
2022-09-18T17:42:40.488Z,50.09
2022-09-18T17:45:07.726Z,50.13
2022-09-18T17:47:34.835Z,49.71
2022-09-18T17:50:02.108Z,48.75
2022-09-18T17:52:28.967Z,48.15
2022-09-18T17:54:55.815Z,48.87
2022-09-18T17:57:22.668Z,49.41
2022-09-18T17:59:49.404Z,49.03
2022-09-18T18:02:17.131Z,48.55
2022-09-18T18:04:44.090Z,50.14
2022-09-18T18:07:10.948Z,51.15
2022-09-18T18:09:38.695Z,50.93
2022-09-18T18:12:06.446Z,51.05
2022-09-18T18:14:34.937Z,51.62
2022-09-18T18:17:01.972Z,49.64
2022-09-18T18:19:28.930Z,49.70
2022-09-18T18:21:55.748Z,49.66
2022-09-18T18:24:25.062Z,50.15
2022-09-18T18:26:53.611Z,51.39
2022-09-18T18:29:21.685Z,51.36
2022-09-18T18:31:50.558Z,50.36
2022-09-18T18:34:21.279Z,50.15
2022-09-18T18:36:50.570Z,49.89
2022-09-18T18:39:20.178Z,51.75
2022-09-18T18:41:47.612Z,52.10
2022-09-18T18:44:16.538Z,53.94
2022-09-18T18:46:43.506Z,52.54
2022-09-18T18:49:14.193Z,53.89
2022-09-18T18:51:48.063Z,52.87
2022-09-18T18:54:22.906Z,53.46
2022-09-18T18:56:51.946Z,53.52
2022-09-18T18:59:19.981Z,53.12
2022-09-18T19:01:47.804Z,52.07
2022-09-18T19:04:19.154Z,53.34
2022-09-18T19:06:49.570Z,55.14
2022-09-18T19:09:20.295Z,55.20
2022-09-18T19:11:48.699Z,54.17
2022-09-18T19:14:21.889Z,54.63
2022-09-18T19:16:50.113Z,55.88
2022-09-18T19:19:18.851Z,55.55
2022-09-18T19:21:46.598Z,60.24
2022-09-18T19:24:14.400Z,60.14
2022-09-18T19:26:43.125Z,63.96
2022-09-18T19:29:13.318Z,61.05
2022-09-18T19:31:43.047Z,58.91
2022-09-18T19:34:12.610Z,58.88
2022-09-18T19:36:39.923Z,58.39
2022-09-18T19:39:08.401Z,58.84
2022-09-18T19:42:12.406Z,57.79
2022-09-18T19:44:50.359Z,57.01
2022-09-18T19:47:31.897Z,57.31
2022-09-18T19:50:02.092Z,57.17
2022-09-18T19:52:29.792Z,57.79
2022-09-18T19:54:58.251Z,57.78
2022-09-18T19:57:28.520Z,58.15
2022-09-18T19:59:57.247Z,57.23
2022-09-18T20:02:25.741Z,57.18
2022-09-18T20:04:52.809Z,58.52
2022-09-18T20:07:19.649Z,58.55
2022-09-18T20:09:46.384Z,62.67
2022-09-18T20:12:13.206Z,61.49
2022-09-18T20:14:40.165Z,60.08
2022-09-18T20:17:07.134Z,59.14
2022-09-18T20:19:34.716Z,59.21
2022-09-18T20:22:02.917Z,58.40
2022-09-18T20:24:31.157Z,58.73
2022-09-18T20:26:59.192Z,58.65
2022-09-18T20:29:27.687Z,58.48
2022-09-18T20:31:54.812Z,57.79
2022-09-18T20:34:23.320Z,58.55
2022-09-18T20:36:52.391Z,57.10
2022-09-18T20:39:19.164Z,57.96
2022-09-18T20:41:45.982Z,58.10
2022-09-18T20:44:12.703Z,57.29
2022-09-18T20:46:40.641Z,58.99
2022-09-18T20:49:08.050Z,58.87
2022-09-18T20:51:36.080Z,59.04
2022-09-18T20:54:07.311Z,58.83
2022-09-18T20:56:41.444Z,57.81
2022-09-18T20:59:09.973Z,58.10
2022-09-18T21:01:40.413Z,58.36
2022-09-18T21:04:09.344Z,57.82
2022-09-18T21:06:36.639Z,57.76
2022-09-18T21:09:08.889Z,59.08
2022-09-18T21:11:41.744Z,58.09
2022-09-18T21:14:11.880Z,57.10
2022-09-18T21:16:43.261Z,57.95
2022-09-18T21:19:12.382Z,57.94
2022-09-18T21:21:39.421Z,56.66
2022-09-18T21:24:07.228Z,56.83
2022-09-18T21:27:00.388Z,57.93
2022-09-18T21:29:30.083Z,57.94
2022-09-18T21:31:58.184Z,57.87
2022-09-18T21:34:31.507Z,57.52
2022-09-18T21:37:01.696Z,58.03
2022-09-18T21:39:30.027Z,58.99
2022-09-18T21:41:58.954Z,58.68
2022-09-18T21:44:27.453Z,59.54
2022-09-18T21:47:00.014Z,61.26
2022-09-18T21:49:29.218Z,60.06
2022-09-18T21:51:57.995Z,61.15
2022-09-18T21:54:25.587Z,61.38
2022-09-18T21:56:53.179Z,62.63
2022-09-18T21:59:22.340Z,62.47
2022-09-18T22:01:50.390Z,62.05
2022-09-18T22:04:17.632Z,63.97
2022-09-18T22:06:45.841Z,62.36
2022-09-18T22:09:21.468Z,61.94
2022-09-18T22:11:49.310Z,62.01
2022-09-18T22:14:19.070Z,62.09
2022-09-18T22:16:47.338Z,65.74
2022-09-18T22:19:15.889Z,62.27
2022-09-18T22:21:45.610Z,65.33
2022-09-18T22:24:17.925Z,62.00
2022-09-18T22:27:02.692Z,60.53
2022-09-18T22:29:32.136Z,60.16
2022-09-18T22:31:59.660Z,58.81
2022-09-18T22:34:28.694Z,60.79
2022-09-18T22:36:56.451Z,60.06
2022-09-18T22:39:23.926Z,59.71
2022-09-18T22:41:51.706Z,60.08
2022-09-18T22:44:21.419Z,59.93
2022-09-18T22:46:49.857Z,60.25
2022-09-18T22:49:17.829Z,60.79
2022-09-18T22:51:45.963Z,60.04
2022-09-18T22:54:14.139Z,63.75
2022-09-18T22:56:49.954Z,64.78
2022-09-18T22:59:19.200Z,64.63
2022-09-18T23:01:51.228Z,62.44
2022-09-18T23:04:19.755Z,63.10
2022-09-18T23:06:48.070Z,62.51
2022-09-18T23:09:15.901Z,61.83
2022-09-18T23:11:45.641Z,60.93
2022-09-18T23:14:18.758Z,60.50
2022-09-18T23:16:46.061Z,60.86
2022-09-18T23:19:16.680Z,60.51
2022-09-18T23:21:43.422Z,59.51
2022-09-18T23:24:10.796Z,59.18
2022-09-18T23:26:40.907Z,58.61
2022-09-18T23:29:10.746Z,59.68
2022-09-18T23:31:38.788Z,59.31
2022-09-18T23:34:10.675Z,59.42
2022-09-18T23:36:41.139Z,58.49
2022-09-18T23:39:15.847Z,58.09
2022-09-18T23:41:43.423Z,59.32
2022-09-18T23:44:12.521Z,60.08
2022-09-18T23:46:39.553Z,60.03
2022-09-18T23:49:08.556Z,60.74
2022-09-18T23:51:38.919Z,60.84
2022-09-18T23:54:07.511Z,61.81
2022-09-18T23:56:37.282Z,61.71
2022-09-18T23:59:06.375Z,61.93
